METAR Data
IDs: Format: Raw Decoded Include TAF

Data at: 2144 UTC 06 Dec 2019

KU42 062135Z AUTO 16009KT 10SM CLR 08/03 A3023 RMK AO1 T00780030
KU42 062115Z AUTO 17007KT 10SM CLR 08/04 A3024 RMK AO1 T00760035
KU42 062055Z AUTO 17007KT 10SM CLR 08/03 A3025 RMK AO1 T00750030
KU42 062035Z AUTO 16007KT 10SM CLR 07/04 A3025 RMK AO1 T00700036
KU42 062015Z AUTO 16008KT 10SM CLR 07/04 A3026 RMK AO1 T00720040
KU42 061955Z AUTO 14004KT 10SM CLR 06/05 A3026 RMK AO1 T00570052
KU42 061935Z AUTO 00000KT 7SM CLR 06/06 A3028 RMK AO1 T00550055
KU42 061915Z AUTO 00000KT 7SM CLR 05/05 A3029 RMK AO1 T00510051
KU42 061855Z AUTO 11006KT 5SM CLR 05/05 A3030 RMK AO1 T00460046
KU42 061835Z AUTO 12006KT 5SM CLR 04/04 A3031 RMK AO1 T00430043
KU42 061815Z AUTO 00000KT 4SM CLR 04/04 A3032 RMK AO1 T00410041
KU42 061755Z AUTO 00000KT 3SM CLR 03/03 A3033 RMK AO1 T00340034 10034 20002
KU42 061735Z AUTO 00000KT 1 3/4SM SCT006 03/03 A3033 RMK AO1 T00250025
KU42 061715Z AUTO 00000KT M1/4SM OVC004 01/01 A3033 RMK AO1 T00100010
KU42 061655Z AUTO 00000KT M1/4SM OVC001 01/01 A3033 RMK AO1 T00060006
KU42 061635Z AUTO 00000KT M1/4SM OVC048 00/00 A3033 RMK AO1 T00030003
KU42 061615Z AUTO 00000KT M1/4SM OVC002 00/00 A3033 RMK AO1 T00020002
KU42 061555Z AUTO 00000KT M1/4SM OVC002 00/00 A3033 RMK AO1 T00020002
KU42 061535Z AUTO 00000KT M1/4SM OVC002 01/01 A3032 RMK AO1 T00050005
KU42 061515Z AUTO 00000KT M1/4SM BKN002 OVC048 01/01 A3031 RMK AO1 T00070007
KU42 061455Z AUTO 00000KT 1/4SM OVC048 01/01 A3031 RMK AO1 T00080008
KU42 061435Z AUTO 00000KT 1/2SM OVC048 01/01 A3030 RMK AO1 T00080008
KU42 061415Z AUTO 00000KT 1/4SM OVC002 01/01 A3030 RMK AO1 T00080008
KU42 061355Z AUTO 17003KT 1/4SM OVC002 01/01 A3030 RMK AO1 T00080008
KU42 061335Z AUTO 00000KT 1/4SM OVC002 01/01 A3029 RMK AO1 T00080008
KU42 061315Z AUTO 00000KT 1/2SM OVC002 01/01 A3029 RMK AO1 T00070007
KU42 061255Z AUTO 00000KT 1/2SM OVC004 01/01 A3029 RMK AO1 T00080008
KU42 061235Z AUTO 00000KT 3/4SM OVC004 01/01 A3029 RMK AO1 T00090009
KU42 061215Z AUTO 00000KT 1/2SM OVC004 01/01 A3029 RMK AO1 T00080008
KU42 061155Z AUTO 00000KT 1/2SM OVC004 01/01 A3029 RMK AO1 70005 T00090009 10013 21002
KU42 061135Z AUTO 00000KT 1SM OVC002 01/01 A3029 RMK AO1 T00100010
KU42 061115Z AUTO 00000KT 1/2SM OVC002 01/01 A3029 RMK AO1 T00100010
KU42 061055Z AUTO 00000KT 1 1/4SM OVC002 01/01 A3029 RMK AO1 T00080008
KU42 061035Z AUTO 00000KT 3/4SM OVC002 01/01 A3029 RMK AO1 T00060006
KU42 061015Z AUTO 26003KT 1/4SM OVC002 00/00 A3030 RMK AO1 T00030003
KU42 060955Z AUTO 00000KT 1/4SM OVC002 00/00 A3031 RMK AO1 T00020002
KU42 060935Z AUTO 00000KT 1/4SM OVC002 00/00 A3031 RMK AO1 T00020002
KU42 060915Z AUTO 30003KT M1/4SM OVC002 00/00 A3030 RMK AO1 T00000000
KU42 060855Z AUTO 31005KT M1/4SM OVC002 00/00 A3029 RMK AO1 T00000000
KU42 060835Z AUTO 00000KT M1/4SM OVC004 00/00 A3029 RMK AO1 T00000000
KU42 060815Z AUTO 00000KT 1/4SM OVC004 00/00 A3029 RMK AO1 T00030003
KU42 060755Z AUTO 00000KT 1/2SM BKN004 BKN050 01/01 A3029 RMK AO1 T00070007
KU42 060735Z AUTO 00000KT 1SM SCT004 OVC050 01/01 A3029 RMK AO1 T00090009
KU42 060715Z AUTO 00000KT 1/2SM OVC050 01/01 A3029 RMK AO1 T00090009
KU42 060655Z AUTO 00000KT 1 1/4SM OVC050 01/01 A3029 RMK AO1 T00110011
KU42 060635Z AUTO 00000KT 1SM BKN007 OVC050 01/01 A3030 RMK AO1 T00100010
KU42 060615Z AUTO 00000KT 1 3/4SM OVC007 01/01 A3029 RMK AO1 T00130013
KU42 060555Z AUTO 00000KT 1 3/4SM BKN007 OVC027 01/01 A3029 RMK AO1 T00100010 10019 20007 400251004
KU42 060535Z AUTO 00000KT 2 1/2SM OVC027 02/02 A3029 RMK AO1 T00170017
KU42 060515Z AUTO 00000KT 2 1/2SM OVC027 02/02 A3028 RMK AO1 T00170017
KU42 060455Z AUTO 00000KT 2SM OVC027 02/02 A3028 RMK AO1 T00170017
KU42 060435Z AUTO 00000KT 2 1/2SM SCT024 OVC029 02/02 A3029 RMK AO1 T00150015
KU42 060415Z AUTO 00000KT 2 1/2SM SCT006 OVC024 02/02 A3029 RMK AO1 T00150015
KU42 060355Z AUTO 00000KT 3SM SCT006 BKN024 OVC029 01/01 A3029 RMK AO1 T00130013
KU42 060335Z AUTO 00000KT 2 1/2SM OVC027 01/01 A3028 RMK AO1 T00090009
KU42 060315Z AUTO 00000KT 2 1/2SM OVC025 01/01 A3028 RMK AO1 T00100010
KU42 060255Z AUTO 32003KT 2SM SCT006 OVC023 01/01 A3028 RMK AO1 T00100010
KU42 060235Z AUTO 34005KT 1 1/2SM BKN006 OVC025 01/01 A3027 RMK AO1 T00100010
KU42 060215Z AUTO 00000KT 1 1/2SM BKN006 OVC027 01/01 A3026 RMK AO1 T00110011
KU42 060155Z AUTO 00000KT 1 3/4SM OVC006 01/01 A3026 RMK AO1 T00120012
KU42 060135Z AUTO 00000KT 2SM OVC006 02/02 A3026 RMK AO1 T00150015
KU42 060115Z AUTO 00000KT 2 1/2SM OVC006 02/02 A3025 RMK AO1 T00170017
KU42 060055Z AUTO 00000KT 2 1/2SM OVC006 02/02 A3025 RMK AO1 T00150015
KU42 060035Z AUTO 00000KT 3SM SCT006 OVC021 02/02 A3024 RMK AO1 T00160016
KU42 060015Z AUTO 00000KT 2 1/2SM OVC021 02/02 A3024 RMK AO1 T00170017
KU42 052355Z AUTO 00000KT 3SM OVC021 02/02 A3024 RMK AO1 T00200020 10020 20005
KU42 052335Z AUTO 00000KT 4SM OVC021 02/02 A3022 RMK AO1 T00200020
KU42 052315Z AUTO 00000KT 4SM OVC021 02/02 A3022 RMK AO1 T00200020
KU42 052255Z AUTO 00000KT 4SM OVC021 02/02 A3022 RMK AO1 T00200020
KU42 052235Z AUTO 00000KT 5SM OVC021 02/02 A3021 RMK AO1 T00200020
KU42 052215Z AUTO 00000KT 5SM OVC019 02/02 A3020 RMK AO1 T00150015
KU42 052155Z AUTO 00000KT 4SM OVC019 02/02 A3020 RMK AO1 T00150015
KU42 052135Z AUTO 00000KT 3SM SCT006 OVC019 02/02 A3019 RMK AO1 T00150015
KU42 052115Z AUTO 00000KT 3SM OVC006 02/02 A3018 RMK AO1 T00160016
KU42 052055Z AUTO 00000KT 2SM OVC006 02/02 A3018 RMK AO1 T00150015
KU42 052035Z AUTO 00000KT 1 3/4SM OVC006 01/01 A3017 RMK AO1 T00110011
KU42 052015Z AUTO 00000KT 1 1/2SM OVC006 01/01 A3017 RMK AO1 T00110011
KU42 051955Z AUTO 00000KT 1 3/4SM OVC006 01/01 A3017 RMK AO1 T00110011
KU42 051935Z AUTO 00000KT 1 1/2SM BKN006 BKN009 OVC016 01/01 A3017 RMK AO1 T00110011
KU42 051915Z AUTO 00000KT 1 1/2SM OVC016 01/01 A3016 RMK AO1 T00080008
KU42 051855Z AUTO 00000KT 1 1/2SM OVC016 01/01 A3016 RMK AO1 T00080008
KU42 051835Z AUTO 00000KT 1 3/4SM BKN004 OVC014 01/01 A3016 RMK AO1 T00080008
KU42 051815Z AUTO 00000KT 1 3/4SM OVC004 01/01 A3015 RMK AO1 T00070007
KU42 051755Z AUTO 00000KT 1SM OVC004 01/01 A3014 RMK AO1 60005 T00050005 10005 20000
KU42 051735Z AUTO 00000KT 3/4SM OVC004 00/00 A3014 RMK AO1 T00030003
KU42 051715Z AUTO 00000KT 3/4SM OVC002 00/00 A3013 RMK AO1 T00020002
KU42 051655Z AUTO 00000KT 3/4SM OVC002 00/00 A3012 RMK AO1 T00020002
KU42 051635Z AUTO 00000KT 3/4SM OVC004 00/00 A3011 RMK AO1 T00030003
KU42 051615Z AUTO 00000KT 3/4SM OVC004 00/00 A3010 RMK AO1 T00040004
KU42 051555Z AUTO 00000KT 1SM OVC006 01/01 A3009 RMK AO1 P0001 T00050005
KU42 051535Z AUTO 00000KT 1SM OVC006 01/01 A3007 RMK AO1 T00050005
KU42 051515Z AUTO 00000KT 1 1/4SM OVC008 01/01 A3006 RMK AO1 T00050005
KU42 051455Z AUTO 00000KT 1SM OVC008 01/01 A3004 RMK AO1 P0003 60004 T00050005
KU42 051435Z AUTO 00000KT 2SM OVC008 01/01 A3003 RMK AO1 P0003 T00050005
KU42 051415Z AUTO 30003KT 1 1/2SM SCT001 OVC006 00/00 A3002 RMK AO1 P0002 T00020002